sensor_id;sensor_type;location;lat;lon;timestamp;P1;durP1;ratioP1;P2;durP2;ratioP2
46481;SDS011;32193;51.446;6.792;2022-09-09T00:01:01;6.47;;;1.23;;
46481;SDS011;32193;51.446;6.792;2022-09-09T00:03:32;6.78;;;1.10;;
46481;SDS011;32193;51.446;6.792;2022-09-09T00:06:05;7.32;;;1.00;;
46481;SDS011;32193;51.446;6.792;2022-09-09T00:11:23;10.75;;;1.45;;
46481;SDS011;32193;51.446;6.792;2022-09-09T00:13:53;4.70;;;0.93;;
46481;SDS011;32193;51.446;6.792;2022-09-09T00:16:22;6.85;;;1.20;;
46481;SDS011;32193;51.446;6.792;2022-09-09T00:24:27;4.75;;;1.15;;
46481;SDS011;32193;51.446;6.792;2022-09-09T00:27:08;5.10;;;1.10;;
46481;SDS011;32193;51.446;6.792;2022-09-09T00:29:56;5.30;;;1.00;;
46481;SDS011;32193;51.446;6.792;2022-09-09T00:32:44;4.78;;;0.90;;
46481;SDS011;32193;51.446;6.792;2022-09-09T00:35:14;4.40;;;1.00;;
46481;SDS011;32193;51.446;6.792;2022-09-09T00:37:43;7.45;;;1.00;;
46481;SDS011;32193;51.446;6.792;2022-09-09T00:43:06;4.32;;;1.00;;
46481;SDS011;32193;51.446;6.792;2022-09-09T00:48:19;6.13;;;0.98;;
46481;SDS011;32193;51.446;6.792;2022-09-09T00:50:52;4.60;;;0.90;;
46481;SDS011;32193;51.446;6.792;2022-09-09T00:53:24;3.90;;;1.00;;
46481;SDS011;32193;51.446;6.792;2022-09-09T00:58:27;8.98;;;1.15;;
46481;SDS011;32193;51.446;6.792;2022-09-09T01:01:13;4.40;;;1.20;;
46481;SDS011;32193;51.446;6.792;2022-09-09T01:03:54;4.80;;;1.00;;
46481;SDS011;32193;51.446;6.792;2022-09-09T01:14:16;7.13;;;1.10;;
46481;SDS011;32193;51.446;6.792;2022-09-09T01:17:09;4.28;;;1.10;;
46481;SDS011;32193;51.446;6.792;2022-09-09T01:22:12;4.85;;;1.10;;
46481;SDS011;32193;51.446;6.792;2022-09-09T01:27:24;8.07;;;1.33;;
46481;SDS011;32193;51.446;6.792;2022-09-09T01:29:50;7.88;;;1.30;;
46481;SDS011;32193;51.446;6.792;2022-09-09T01:35:03;5.55;;;1.20;;
46481;SDS011;32193;51.446;6.792;2022-09-09T01:37:29;5.32;;;1.23;;
46481;SDS011;32193;51.446;6.792;2022-09-09T01:39:54;4.82;;;1.30;;
46481;SDS011;32193;51.446;6.792;2022-09-09T01:42:20;4.93;;;1.70;;
46481;SDS011;32193;51.446;6.792;2022-09-09T01:44:45;5.97;;;1.20;;
46481;SDS011;32193;51.446;6.792;2022-09-09T01:47:11;8.07;;;2.20;;
46481;SDS011;32193;51.446;6.792;2022-09-09T01:49:37;5.10;;;1.10;;
46481;SDS011;32193;51.446;6.792;2022-09-09T01:52:03;10.63;;;2.72;;
46481;SDS011;32193;51.446;6.792;2022-09-09T01:54:30;6.18;;;1.25;;
46481;SDS011;32193;51.446;6.792;2022-09-09T02:05:03;5.30;;;1.63;;
46481;SDS011;32193;51.446;6.792;2022-09-09T02:07:51;6.00;;;1.90;;
46481;SDS011;32193;51.446;6.792;2022-09-09T02:10:20;7.53;;;2.08;;
46481;SDS011;32193;51.446;6.792;2022-09-09T02:12:55;5.63;;;1.70;;
46481;SDS011;32193;51.446;6.792;2022-09-09T02:18:09;6.57;;;2.30;;
46481;SDS011;32193;51.446;6.792;2022-09-09T02:20:38;8.85;;;2.17;;
46481;SDS011;32193;51.446;6.792;2022-09-09T02:23:05;6.10;;;1.80;;
46481;SDS011;32193;51.446;6.792;2022-09-09T02:25:33;6.93;;;1.80;;
46481;SDS011;32193;51.446;6.792;2022-09-09T02:28:01;8.02;;;1.52;;
46481;SDS011;32193;51.446;6.792;2022-09-09T02:30:29;7.35;;;1.50;;
46481;SDS011;32193;51.446;6.792;2022-09-09T02:32:57;5.93;;;1.95;;
46481;SDS011;32193;51.446;6.792;2022-09-09T02:35:27;10.35;;;2.00;;
46481;SDS011;32193;51.446;6.792;2022-09-09T02:37:56;8.05;;;1.77;;
46481;SDS011;32193;51.446;6.792;2022-09-09T02:40:24;17.50;;;1.92;;
46481;SDS011;32193;51.446;6.792;2022-09-09T02:42:50;6.75;;;1.42;;
46481;SDS011;32193;51.446;6.792;2022-09-09T02:45:17;4.60;;;1.35;;
46481;SDS011;32193;51.446;6.792;2022-09-09T02:47:50;5.15;;;1.33;;
46481;SDS011;32193;51.446;6.792;2022-09-09T02:50:33;6.25;;;2.05;;
46481;SDS011;32193;51.446;6.792;2022-09-09T02:55:40;5.40;;;1.73;;
46481;SDS011;32193;51.446;6.792;2022-09-09T02:58:10;7.07;;;1.70;;
46481;SDS011;32193;51.446;6.792;2022-09-09T03:00:41;8.85;;;1.75;;
46481;SDS011;32193;51.446;6.792;2022-09-09T03:03:08;5.05;;;1.30;;
46481;SDS011;32193;51.446;6.792;2022-09-09T03:05:34;8.23;;;1.48;;
46481;SDS011;32193;51.446;6.792;2022-09-09T03:08:00;5.43;;;1.38;;
46481;SDS011;32193;51.446;6.792;2022-09-09T03:10:27;7.30;;;1.30;;
46481;SDS011;32193;51.446;6.792;2022-09-09T03:12:52;6.70;;;1.88;;
46481;SDS011;32193;51.446;6.792;2022-09-09T03:15:18;5.60;;;1.27;;
46481;SDS011;32193;51.446;6.792;2022-09-09T03:17:44;7.03;;;1.60;;
46481;SDS011;32193;51.446;6.792;2022-09-09T03:20:10;9.38;;;1.60;;
46481;SDS011;32193;51.446;6.792;2022-09-09T03:22:37;5.57;;;1.83;;
46481;SDS011;32193;51.446;6.792;2022-09-09T03:25:03;5.10;;;1.27;;
46481;SDS011;32193;51.446;6.792;2022-09-09T03:27:29;6.60;;;1.73;;
46481;SDS011;32193;51.446;6.792;2022-09-09T03:29:55;9.35;;;1.75;;
46481;SDS011;32193;51.446;6.792;2022-09-09T03:32:21;7.78;;;1.83;;
46481;SDS011;32193;51.446;6.792;2022-09-09T03:34:47;5.68;;;1.80;;
46481;SDS011;32193;51.446;6.792;2022-09-09T03:37:15;5.85;;;1.65;;
46481;SDS011;32193;51.446;6.792;2022-09-09T03:39:42;6.88;;;2.20;;
46481;SDS011;32193;51.446;6.792;2022-09-09T03:42:08;6.70;;;1.70;;
46481;SDS011;32193;51.446;6.792;2022-09-09T03:44:35;15.98;;;2.90;;
46481;SDS011;32193;51.446;6.792;2022-09-09T03:47:01;7.13;;;1.98;;
46481;SDS011;32193;51.446;6.792;2022-09-09T03:49:27;7.20;;;2.15;;
46481;SDS011;32193;51.446;6.792;2022-09-09T03:51:56;7.18;;;2.35;;
46481;SDS011;32193;51.446;6.792;2022-09-09T03:54:23;8.25;;;2.60;;
46481;SDS011;32193;51.446;6.792;2022-09-09T03:56:49;6.80;;;1.85;;
46481;SDS011;32193;51.446;6.792;2022-09-09T03:59:15;6.90;;;1.77;;
46481;SDS011;32193;51.446;6.792;2022-09-09T04:01:40;6.13;;;1.98;;
46481;SDS011;32193;51.446;6.792;2022-09-09T04:04:07;8.10;;;2.00;;
46481;SDS011;32193;51.446;6.792;2022-09-09T04:06:33;5.30;;;1.92;;
46481;SDS011;32193;51.446;6.792;2022-09-09T04:08:59;8.63;;;1.98;;
46481;SDS011;32193;51.446;6.792;2022-09-09T04:11:27;8.80;;;2.30;;
46481;SDS011;32193;51.446;6.792;2022-09-09T04:13:53;8.48;;;2.20;;
46481;SDS011;32193;51.446;6.792;2022-09-09T04:16:19;10.68;;;2.20;;
46481;SDS011;32193;51.446;6.792;2022-09-09T04:18:45;7.88;;;1.65;;
46481;SDS011;32193;51.446;6.792;2022-09-09T04:21:11;8.60;;;1.92;;
46481;SDS011;32193;51.446;6.792;2022-09-09T04:23:37;6.28;;;1.73;;
46481;SDS011;32193;51.446;6.792;2022-09-09T04:26:03;7.10;;;2.00;;
46481;SDS011;32193;51.446;6.792;2022-09-09T04:28:31;9.63;;;1.92;;
46481;SDS011;32193;51.446;6.792;2022-09-09T04:31:03;8.48;;;1.90;;
46481;SDS011;32193;51.446;6.792;2022-09-09T04:33:30;8.30;;;1.85;;
46481;SDS011;32193;51.446;6.792;2022-09-09T04:35:56;9.60;;;1.90;;
46481;SDS011;32193;51.446;6.792;2022-09-09T04:38:22;7.63;;;1.98;;
46481;SDS011;32193;51.446;6.792;2022-09-09T04:40:49;7.75;;;1.90;;
46481;SDS011;32193;51.446;6.792;2022-09-09T04:43:16;6.82;;;2.20;;
46481;SDS011;32193;51.446;6.792;2022-09-09T04:45:44;5.03;;;1.48;;
46481;SDS011;32193;51.446;6.792;2022-09-09T04:48:12;4.95;;;1.73;;
46481;SDS011;32193;51.446;6.792;2022-09-09T04:50:38;10.57;;;2.38;;
46481;SDS011;32193;51.446;6.792;2022-09-09T04:53:04;8.15;;;2.28;;
46481;SDS011;32193;51.446;6.792;2022-09-09T04:55:31;8.73;;;2.05;;
46481;SDS011;32193;51.446;6.792;2022-09-09T04:57:57;8.20;;;1.75;;
46481;SDS011;32193;51.446;6.792;2022-09-09T05:00:23;8.90;;;1.92;;
46481;SDS011;32193;51.446;6.792;2022-09-09T05:02:49;8.45;;;2.03;;
46481;SDS011;32193;51.446;6.792;2022-09-09T05:05:15;13.75;;;2.33;;
46481;SDS011;32193;51.446;6.792;2022-09-09T05:07:41;10.18;;;2.08;;
46481;SDS011;32193;51.446;6.792;2022-09-09T05:10:08;7.43;;;1.95;;
46481;SDS011;32193;51.446;6.792;2022-09-09T05:12:35;12.15;;;2.22;;
46481;SDS011;32193;51.446;6.792;2022-09-09T05:15:01;8.35;;;1.67;;
46481;SDS011;32193;51.446;6.792;2022-09-09T05:17:27;12.13;;;2.13;;
46481;SDS011;32193;51.446;6.792;2022-09-09T05:19:52;8.50;;;2.17;;
46481;SDS011;32193;51.446;6.792;2022-09-09T05:22:19;11.75;;;2.20;;
46481;SDS011;32193;51.446;6.792;2022-09-09T05:24:45;11.88;;;2.53;;
46481;SDS011;32193;51.446;6.792;2022-09-09T05:27:11;8.02;;;2.15;;
46481;SDS011;32193;51.446;6.792;2022-09-09T05:29:37;7.65;;;2.30;;
46481;SDS011;32193;51.446;6.792;2022-09-09T05:32:03;7.78;;;1.92;;
46481;SDS011;32193;51.446;6.792;2022-09-09T05:34:29;8.65;;;2.15;;
46481;SDS011;32193;51.446;6.792;2022-09-09T05:36:55;7.40;;;2.28;;
46481;SDS011;32193;51.446;6.792;2022-09-09T05:39:20;9.32;;;2.63;;
46481;SDS011;32193;51.446;6.792;2022-09-09T05:41:46;11.30;;;2.20;;
46481;SDS011;32193;51.446;6.792;2022-09-09T05:44:12;10.63;;;2.03;;
46481;SDS011;32193;51.446;6.792;2022-09-09T05:46:38;8.90;;;3.00;;
46481;SDS011;32193;51.446;6.792;2022-09-09T05:49:04;12.57;;;2.58;;
46481;SDS011;32193;51.446;6.792;2022-09-09T05:51:31;13.57;;;2.83;;
46481;SDS011;32193;51.446;6.792;2022-09-09T05:53:57;8.95;;;2.15;;
46481;SDS011;32193;51.446;6.792;2022-09-09T05:56:25;10.18;;;2.85;;
46481;SDS011;32193;51.446;6.792;2022-09-09T05:58:51;8.85;;;2.40;;
46481;SDS011;32193;51.446;6.792;2022-09-09T06:01:25;9.65;;;2.47;;
46481;SDS011;32193;51.446;6.792;2022-09-09T06:03:53;8.98;;;2.67;;
46481;SDS011;32193;51.446;6.792;2022-09-09T06:06:20;7.93;;;1.90;;
46481;SDS011;32193;51.446;6.792;2022-09-09T06:08:57;10.80;;;2.22;;
46481;SDS011;32193;51.446;6.792;2022-09-09T06:11:24;15.45;;;2.67;;
46481;SDS011;32193;51.446;6.792;2022-09-09T06:13:51;12.10;;;2.45;;
46481;SDS011;32193;51.446;6.792;2022-09-09T06:16:19;10.90;;;2.25;;
46481;SDS011;32193;51.446;6.792;2022-09-09T06:18:48;14.07;;;2.25;;
46481;SDS011;32193;51.446;6.792;2022-09-09T06:21:19;13.73;;;2.72;;
46481;SDS011;32193;51.446;6.792;2022-09-09T06:23:45;13.88;;;2.75;;
46481;SDS011;32193;51.446;6.792;2022-09-09T06:26:16;11.63;;;2.40;;
46481;SDS011;32193;51.446;6.792;2022-09-09T06:28:43;12.98;;;2.80;;
46481;SDS011;32193;51.446;6.792;2022-09-09T06:31:10;11.35;;;2.58;;
46481;SDS011;32193;51.446;6.792;2022-09-09T06:33:37;18.13;;;3.10;;
46481;SDS011;32193;51.446;6.792;2022-09-09T06:36:07;10.50;;;2.13;;
46481;SDS011;32193;51.446;6.792;2022-09-09T06:38:33;11.18;;;2.35;;
46481;SDS011;32193;51.446;6.792;2022-09-09T06:40:59;8.50;;;2.42;;
46481;SDS011;32193;51.446;6.792;2022-09-09T06:43:25;11.70;;;2.53;;
46481;SDS011;32193;51.446;6.792;2022-09-09T06:46:05;14.77;;;2.92;;
46481;SDS011;32193;51.446;6.792;2022-09-09T06:48:33;11.55;;;2.00;;
46481;SDS011;32193;51.446;6.792;2022-09-09T06:51:06;14.02;;;2.40;;
46481;SDS011;32193;51.446;6.792;2022-09-09T06:53:33;15.35;;;2.45;;
46481;SDS011;32193;51.446;6.792;2022-09-09T06:56:02;11.65;;;3.22;;
46481;SDS011;32193;51.446;6.792;2022-09-09T06:58:34;11.73;;;2.47;;
46481;SDS011;32193;51.446;6.792;2022-09-09T07:01:11;16.33;;;2.42;;
46481;SDS011;32193;51.446;6.792;2022-09-09T07:03:38;10.55;;;2.15;;
46481;SDS011;32193;51.446;6.792;2022-09-09T07:06:05;11.00;;;2.22;;
46481;SDS011;32193;51.446;6.792;2022-09-09T07:08:32;8.13;;;1.98;;
46481;SDS011;32193;51.446;6.792;2022-09-09T07:11:05;11.50;;;2.30;;
46481;SDS011;32193;51.446;6.792;2022-09-09T07:13:32;10.13;;;2.67;;
46481;SDS011;32193;51.446;6.792;2022-09-09T07:16:07;17.27;;;2.42;;
46481;SDS011;32193;51.446;6.792;2022-09-09T07:18:33;13.75;;;2.63;;
46481;SDS011;32193;51.446;6.792;2022-09-09T07:21:00;13.68;;;2.70;;
46481;SDS011;32193;51.446;6.792;2022-09-09T07:23:27;13.02;;;2.33;;
46481;SDS011;32193;51.446;6.792;2022-09-09T07:25:53;10.70;;;2.65;;
46481;SDS011;32193;51.446;6.792;2022-09-09T07:28:19;12.65;;;2.13;;
46481;SDS011;32193;51.446;6.792;2022-09-09T07:30:58;8.90;;;2.13;;
46481;SDS011;32193;51.446;6.792;2022-09-09T07:33:26;11.63;;;1.90;;
46481;SDS011;32193;51.446;6.792;2022-09-09T07:35:52;8.10;;;1.95;;
46481;SDS011;32193;51.446;6.792;2022-09-09T07:38:19;11.00;;;1.98;;
46481;SDS011;32193;51.446;6.792;2022-09-09T07:40:45;10.15;;;2.03;;
46481;SDS011;32193;51.446;6.792;2022-09-09T07:43:11;12.57;;;1.85;;
46481;SDS011;32193;51.446;6.792;2022-09-09T07:45:37;11.20;;;2.17;;
46481;SDS011;32193;51.446;6.792;2022-09-09T07:48:03;19.63;;;2.55;;
46481;SDS011;32193;51.446;6.792;2022-09-09T07:50:29;10.45;;;1.70;;
46481;SDS011;32193;51.446;6.792;2022-09-09T07:52:55;12.23;;;1.45;;
46481;SDS011;32193;51.446;6.792;2022-09-09T07:55:21;11.35;;;2.40;;
46481;SDS011;32193;51.446;6.792;2022-09-09T07:57:50;11.23;;;1.73;;
46481;SDS011;32193;51.446;6.792;2022-09-09T08:00:16;10.13;;;2.03;;
46481;SDS011;32193;51.446;6.792;2022-09-09T08:02:43;11.68;;;1.90;;
46481;SDS011;32193;51.446;6.792;2022-09-09T08:05:11;15.85;;;2.15;;
46481;SDS011;32193;51.446;6.792;2022-09-09T08:07:37;9.65;;;1.92;;
46481;SDS011;32193;51.446;6.792;2022-09-09T08:10:04;13.15;;;2.10;;
46481;SDS011;32193;51.446;6.792;2022-09-09T08:12:31;7.63;;;1.75;;
46481;SDS011;32193;51.446;6.792;2022-09-09T08:14:57;9.73;;;1.83;;
46481;SDS011;32193;51.446;6.792;2022-09-09T08:17:23;13.38;;;2.03;;
46481;SDS011;32193;51.446;6.792;2022-09-09T08:19:49;12.20;;;2.13;;
46481;SDS011;32193;51.446;6.792;2022-09-09T08:22:15;8.15;;;1.50;;
46481;SDS011;32193;51.446;6.792;2022-09-09T08:24:41;10.85;;;2.30;;
46481;SDS011;32193;51.446;6.792;2022-09-09T08:27:07;10.90;;;1.70;;
46481;SDS011;32193;51.446;6.792;2022-09-09T08:29:34;11.93;;;1.35;;
46481;SDS011;32193;51.446;6.792;2022-09-09T08:32:02;10.05;;;2.05;;
46481;SDS011;32193;51.446;6.792;2022-09-09T08:34:28;11.55;;;1.92;;
46481;SDS011;32193;51.446;6.792;2022-09-09T08:36:55;11.02;;;1.63;;
46481;SDS011;32193;51.446;6.792;2022-09-09T08:39:21;14.40;;;1.60;;
46481;SDS011;32193;51.446;6.792;2022-09-09T08:49:38;8.52;;;1.83;;
46481;SDS011;32193;51.446;6.792;2022-09-09T08:52:15;11.68;;;2.15;;
46481;SDS011;32193;51.446;6.792;2022-09-09T08:54:45;10.45;;;1.52;;
46481;SDS011;32193;51.446;6.792;2022-09-09T08:57:14;11.00;;;2.08;;
46481;SDS011;32193;51.446;6.792;2022-09-09T08:59:43;10.95;;;1.80;;
46481;SDS011;32193;51.446;6.792;2022-09-09T09:08:20;8.98;;;2.10;;
46481;SDS011;32193;51.446;6.792;2022-09-09T09:10:51;9.95;;;1.40;;
46481;SDS011;32193;51.446;6.792;2022-09-09T09:16:13;10.32;;;1.67;;
46481;SDS011;32193;51.446;6.792;2022-09-09T09:18:52;16.45;;;2.00;;
46481;SDS011;32193;51.446;6.792;2022-09-09T09:24:18;7.38;;;1.27;;
46481;SDS011;32193;51.446;6.792;2022-09-09T09:26:46;9.60;;;1.88;;
46481;SDS011;32193;51.446;6.792;2022-09-09T09:29:16;8.02;;;2.13;;
46481;SDS011;32193;51.446;6.792;2022-09-09T09:31:55;7.85;;;1.50;;
46481;SDS011;32193;51.446;6.792;2022-09-09T09:34:21;8.07;;;1.48;;
46481;SDS011;32193;51.446;6.792;2022-09-09T09:36:55;8.75;;;1.60;;
46481;SDS011;32193;51.446;6.792;2022-09-09T09:39:26;7.25;;;1.42;;
46481;SDS011;32193;51.446;6.792;2022-09-09T09:41:56;6.97;;;1.40;;
46481;SDS011;32193;51.446;6.792;2022-09-09T09:46:53;9.90;;;1.35;;
46481;SDS011;32193;51.446;6.792;2022-09-09T09:49:30;8.10;;;1.60;;
46481;SDS011;32193;51.446;6.792;2022-09-09T09:51:59;7.57;;;2.08;;
46481;SDS011;32193;51.446;6.792;2022-09-09T09:56:53;10.95;;;1.52;;
46481;SDS011;32193;51.446;6.792;2022-09-09T10:01:54;8.70;;;1.55;;
46481;SDS011;32193;51.446;6.792;2022-09-09T10:04:42;9.25;;;1.77;;
46481;SDS011;32193;51.446;6.792;2022-09-09T10:07:12;6.03;;;1.40;;
46481;SDS011;32193;51.446;6.792;2022-09-09T10:09:41;7.90;;;1.80;;
46481;SDS011;32193;51.446;6.792;2022-09-09T10:14:42;8.85;;;1.70;;
46481;SDS011;32193;51.446;6.792;2022-09-09T10:28:48;8.65;;;1.50;;
46481;SDS011;32193;51.446;6.792;2022-09-09T10:40:19;8.73;;;1.33;;
46481;SDS011;32193;51.446;6.792;2022-09-09T10:51:29;10.50;;;1.65;;
46481;SDS011;32193;51.446;6.792;2022-09-09T10:56:28;5.95;;;1.23;;
46481;SDS011;32193;51.446;6.792;2022-09-09T10:59:15;6.07;;;0.98;;
46481;SDS011;32193;51.446;6.792;2022-09-09T11:01:48;9.77;;;1.95;;
46481;SDS011;32193;51.446;6.792;2022-09-09T11:04:22;7.22;;;1.20;;
46481;SDS011;32193;51.446;6.792;2022-09-09T11:06:50;7.82;;;1.65;;
46481;SDS011;32193;51.446;6.792;2022-09-09T11:09:25;12.30;;;1.27;;
46481;SDS011;32193;51.446;6.792;2022-09-09T11:11:53;4.53;;;0.88;;
46481;SDS011;32193;51.446;6.792;2022-09-09T11:14:37;7.97;;;1.75;;
46481;SDS011;32193;51.446;6.792;2022-09-09T11:17:22;12.70;;;2.45;;
46481;SDS011;32193;51.446;6.792;2022-09-09T11:19:49;6.40;;;1.20;;
46481;SDS011;32193;51.446;6.792;2022-09-09T11:25:01;4.97;;;1.52;;
46481;SDS011;32193;51.446;6.792;2022-09-09T11:27:31;5.15;;;1.40;;
46481;SDS011;32193;51.446;6.792;2022-09-09T11:30:22;5.47;;;1.25;;
46481;SDS011;32193;51.446;6.792;2022-09-09T11:42:46;8.50;;;1.73;;
46481;SDS011;32193;51.446;6.792;2022-09-09T11:45:24;5.10;;;0.98;;
46481;SDS011;32193;51.446;6.792;2022-09-09T11:47:54;12.20;;;1.42;;
46481;SDS011;32193;51.446;6.792;2022-09-09T11:52:47;6.05;;;1.33;;
46481;SDS011;32193;51.446;6.792;2022-09-09T11:55:28;6.68;;;1.42;;
46481;SDS011;32193;51.446;6.792;2022-09-09T11:58:02;8.02;;;1.33;;
46481;SDS011;32193;51.446;6.792;2022-09-09T12:00:36;5.00;;;1.10;;
46481;SDS011;32193;51.446;6.792;2022-09-09T12:03:02;3.60;;;0.70;;
46481;SDS011;32193;51.446;6.792;2022-09-09T12:05:35;5.57;;;1.00;;
46481;SDS011;32193;51.446;6.792;2022-09-09T12:08:10;3.40;;;0.70;;
46481;SDS011;32193;51.446;6.792;2022-09-09T12:10:39;7.10;;;1.42;;
46481;SDS011;32193;51.446;6.792;2022-09-09T12:13:14;6.40;;;1.17;;
46481;SDS011;32193;51.446;6.792;2022-09-09T12:15:51;10.38;;;1.42;;
46481;SDS011;32193;51.446;6.792;2022-09-09T12:18:25;8.07;;;1.30;;
46481;SDS011;32193;51.446;6.792;2022-09-09T12:20:57;5.20;;;0.82;;
46481;SDS011;32193;51.446;6.792;2022-09-09T12:26:28;8.40;;;2.03;;
46481;SDS011;32193;51.446;6.792;2022-09-09T12:29:06;5.60;;;1.38;;
46481;SDS011;32193;51.446;6.792;2022-09-09T12:31:46;5.57;;;1.25;;
46481;SDS011;32193;51.446;6.792;2022-09-09T12:34:38;6.70;;;1.38;;
46481;SDS011;32193;51.446;6.792;2022-09-09T12:37:10;8.73;;;1.10;;
46481;SDS011;32193;51.446;6.792;2022-09-09T12:39:41;11.70;;;1.60;;
46481;SDS011;32193;51.446;6.792;2022-09-09T12:42:17;8.98;;;1.65;;
46481;SDS011;32193;51.446;6.792;2022-09-09T12:44:50;7.87;;;1.10;;
46481;SDS011;32193;51.446;6.792;2022-09-09T12:47:16;6.38;;;1.70;;
46481;SDS011;32193;51.446;6.792;2022-09-09T12:49:44;5.88;;;1.30;;
46481;SDS011;32193;51.446;6.792;2022-09-09T12:52:14;7.60;;;1.45;;
46481;SDS011;32193;51.446;6.792;2022-09-09T12:54:44;13.05;;;3.25;;
46481;SDS011;32193;51.446;6.792;2022-09-09T12:57:16;20.27;;;2.58;;
46481;SDS011;32193;51.446;6.792;2022-09-09T12:59:43;6.82;;;1.25;;
46481;SDS011;32193;51.446;6.792;2022-09-09T13:02:31;7.20;;;1.70;;
46481;SDS011;32193;51.446;6.792;2022-09-09T13:07:23;8.32;;;1.73;;
46481;SDS011;32193;51.446;6.792;2022-09-09T13:09:51;11.02;;;1.70;;
46481;SDS011;32193;51.446;6.792;2022-09-09T13:12:18;7.15;;;1.80;;
46481;SDS011;32193;51.446;6.792;2022-09-09T13:14:45;9.85;;;1.60;;
46481;SDS011;32193;51.446;6.792;2022-09-09T13:17:17;5.88;;;1.33;;
46481;SDS011;32193;51.446;6.792;2022-09-09T13:19:45;5.88;;;1.20;;
46481;SDS011;32193;51.446;6.792;2022-09-09T13:22:54;7.47;;;1.88;;
46481;SDS011;32193;51.446;6.792;2022-09-09T13:25:13;15.23;;;3.10;;
46481;SDS011;32193;51.446;6.792;2022-09-09T13:35:50;14.52;;;4.72;;
46481;SDS011;32193;51.446;6.792;2022-09-09T13:38:18;12.82;;;4.35;;
46481;SDS011;32193;51.446;6.792;2022-09-09T13:40:57;11.20;;;3.85;;
46481;SDS011;32193;51.446;6.792;2022-09-09T13:43:50;11.70;;;3.97;;
46481;SDS011;32193;51.446;6.792;2022-09-09T13:46:32;13.93;;;4.38;;
46481;SDS011;32193;51.446;6.792;2022-09-09T13:49:19;10.23;;;3.10;;
46481;SDS011;32193;51.446;6.792;2022-09-09T13:51:48;9.55;;;2.65;;
46481;SDS011;32193;51.446;6.792;2022-09-09T13:54:16;8.43;;;2.25;;
46481;SDS011;32193;51.446;6.792;2022-09-09T13:56:43;11.70;;;3.60;;
46481;SDS011;32193;51.446;6.792;2022-09-09T13:59:11;10.20;;;3.00;;
46481;SDS011;32193;51.446;6.792;2022-09-09T14:01:37;10.90;;;3.15;;
46481;SDS011;32193;51.446;6.792;2022-09-09T14:04:03;12.07;;;3.95;;
46481;SDS011;32193;51.446;6.792;2022-09-09T14:06:31;12.60;;;3.40;;
46481;SDS011;32193;51.446;6.792;2022-09-09T14:08:57;7.13;;;2.28;;
46481;SDS011;32193;51.446;6.792;2022-09-09T14:11:23;7.03;;;1.58;;
46481;SDS011;32193;51.446;6.792;2022-09-09T14:13:50;9.65;;;2.58;;
46481;SDS011;32193;51.446;6.792;2022-09-09T14:16:16;5.93;;;1.98;;
46481;SDS011;32193;51.446;6.792;2022-09-09T14:18:42;7.60;;;1.70;;
46481;SDS011;32193;51.446;6.792;2022-09-09T14:21:09;9.05;;;2.58;;
46481;SDS011;32193;51.446;6.792;2022-09-09T14:23:35;6.80;;;1.73;;
46481;SDS011;32193;51.446;6.792;2022-09-09T14:26:03;9.13;;;1.77;;
46481;SDS011;32193;51.446;6.792;2022-09-09T14:28:32;7.82;;;1.83;;
46481;SDS011;32193;51.446;6.792;2022-09-09T14:31:01;10.60;;;5.25;;
46481;SDS011;32193;51.446;6.792;2022-09-09T14:33:29;8.38;;;1.58;;
46481;SDS011;32193;51.446;6.792;2022-09-09T14:36:03;8.75;;;1.77;;
46481;SDS011;32193;51.446;6.792;2022-09-09T14:38:30;8.40;;;2.08;;
46481;SDS011;32193;51.446;6.792;2022-09-09T14:40:58;5.72;;;1.02;;
46481;SDS011;32193;51.446;6.792;2022-09-09T14:43:24;9.13;;;2.25;;
46481;SDS011;32193;51.446;6.792;2022-09-09T14:45:51;11.68;;;2.13;;
46481;SDS011;32193;51.446;6.792;2022-09-09T14:48:17;8.93;;;1.35;;
46481;SDS011;32193;51.446;6.792;2022-09-09T14:50:44;5.43;;;1.25;;
46481;SDS011;32193;51.446;6.792;2022-09-09T14:53:09;7.32;;;1.10;;
46481;SDS011;32193;51.446;6.792;2022-09-09T14:55:36;6.63;;;1.17;;
46481;SDS011;32193;51.446;6.792;2022-09-09T14:58:03;7.68;;;1.50;;
46481;SDS011;32193;51.446;6.792;2022-09-09T15:00:29;7.13;;;1.20;;
46481;SDS011;32193;51.446;6.792;2022-09-09T15:02:54;4.93;;;1.13;;
46481;SDS011;32193;51.446;6.792;2022-09-09T15:05:21;4.53;;;0.93;;
46481;SDS011;32193;51.446;6.792;2022-09-09T15:07:47;5.05;;;1.15;;
46481;SDS011;32193;51.446;6.792;2022-09-09T15:10:13;4.57;;;0.95;;
46481;SDS011;32193;51.446;6.792;2022-09-09T15:12:39;4.78;;;1.00;;
46481;SDS011;32193;51.446;6.792;2022-09-09T15:15:07;5.70;;;1.25;;
46481;SDS011;32193;51.446;6.792;2022-09-09T15:17:33;6.35;;;1.25;;
46481;SDS011;32193;51.446;6.792;2022-09-09T15:19:59;7.75;;;1.40;;
46481;SDS011;32193;51.446;6.792;2022-09-09T15:22:24;5.28;;;1.40;;
46481;SDS011;32193;51.446;6.792;2022-09-09T15:24:50;7.35;;;1.95;;
46481;SDS011;32193;51.446;6.792;2022-09-09T15:27:16;9.80;;;1.55;;
46481;SDS011;32193;51.446;6.792;2022-09-09T15:29:43;7.93;;;1.90;;
46481;SDS011;32193;51.446;6.792;2022-09-09T15:32:09;7.90;;;2.20;;
46481;SDS011;32193;51.446;6.792;2022-09-09T15:34:35;9.57;;;2.55;;
46481;SDS011;32193;51.446;6.792;2022-09-09T15:37:01;9.15;;;2.90;;
46481;SDS011;32193;51.446;6.792;2022-09-09T15:39:27;7.18;;;2.55;;
46481;SDS011;32193;51.446;6.792;2022-09-09T15:41:52;7.13;;;1.88;;
46481;SDS011;32193;51.446;6.792;2022-09-09T15:44:18;5.03;;;1.42;;
46481;SDS011;32193;51.446;6.792;2022-09-09T15:46:51;8.15;;;1.70;;
46481;SDS011;32193;51.446;6.792;2022-09-09T15:49:24;5.88;;;1.20;;
46481;SDS011;32193;51.446;6.792;2022-09-09T15:54:19;7.25;;;1.20;;
46481;SDS011;32193;51.446;6.792;2022-09-09T15:56:50;4.22;;;1.02;;
46481;SDS011;32193;51.446;6.792;2022-09-09T15:59:22;4.20;;;1.13;;
46481;SDS011;32193;51.446;6.792;2022-09-09T16:01:49;6.72;;;1.23;;
46481;SDS011;32193;51.446;6.792;2022-09-09T16:04:18;8.30;;;1.10;;
46481;SDS011;32193;51.446;6.792;2022-09-09T16:06:48;3.53;;;0.90;;
46481;SDS011;32193;51.446;6.792;2022-09-09T16:09:23;5.40;;;0.88;;
46481;SDS011;32193;51.446;6.792;2022-09-09T16:11:49;2.95;;;0.60;;
46481;SDS011;32193;51.446;6.792;2022-09-09T16:14:18;3.20;;;0.68;;
46481;SDS011;32193;51.446;6.792;2022-09-09T16:16:44;6.10;;;0.90;;
46481;SDS011;32193;51.446;6.792;2022-09-09T16:19:10;3.95;;;0.80;;
46481;SDS011;32193;51.446;6.792;2022-09-09T16:21:47;3.53;;;0.73;;
46481;SDS011;32193;51.446;6.792;2022-09-09T16:24:14;7.28;;;1.02;;
46481;SDS011;32193;51.446;6.792;2022-09-09T16:26:45;7.72;;;0.90;;
46481;SDS011;32193;51.446;6.792;2022-09-09T16:29:11;3.55;;;0.65;;
46481;SDS011;32193;51.446;6.792;2022-09-09T16:31:38;5.68;;;1.10;;
46481;SDS011;32193;51.446;6.792;2022-09-09T16:34:05;8.82;;;0.90;;
46481;SDS011;32193;51.446;6.792;2022-09-09T16:36:32;4.68;;;1.10;;
46481;SDS011;32193;51.446;6.792;2022-09-09T16:39:05;4.75;;;1.17;;
46481;SDS011;32193;51.446;6.792;2022-09-09T16:41:31;5.20;;;1.10;;
46481;SDS011;32193;51.446;6.792;2022-09-09T16:43:58;4.93;;;1.10;;
46481;SDS011;32193;51.446;6.792;2022-09-09T16:46:25;4.43;;;0.93;;
46481;SDS011;32193;51.446;6.792;2022-09-09T16:48:52;4.80;;;1.50;;
46481;SDS011;32193;51.446;6.792;2022-09-09T16:51:30;6.13;;;1.23;;
46481;SDS011;32193;51.446;6.792;2022-09-09T16:53:57;4.90;;;1.15;;
46481;SDS011;32193;51.446;6.792;2022-09-09T16:56:24;4.53;;;1.40;;
46481;SDS011;32193;51.446;6.792;2022-09-09T16:58:55;4.40;;;1.40;;
46481;SDS011;32193;51.446;6.792;2022-09-09T17:01:25;5.70;;;1.30;;
46481;SDS011;32193;51.446;6.792;2022-09-09T17:03:53;6.32;;;1.60;;
46481;SDS011;32193;51.446;6.792;2022-09-09T17:06:19;6.30;;;1.73;;
46481;SDS011;32193;51.446;6.792;2022-09-09T17:08:44;5.78;;;1.60;;
46481;SDS011;32193;51.446;6.792;2022-09-09T17:11:11;5.15;;;1.60;;
46481;SDS011;32193;51.446;6.792;2022-09-09T17:13:38;5.95;;;1.35;;